GLO1704 SBCF-SBMO
Flight info
| Callsign | GLO1704 |
|---|---|
| Flight time | 1h 58m |
| Altitude | 37000 |
| Route | ILPIR UZ23 ANDIG |
| Aircraft | B738/M-SDE2E3FGHIRWXY/LB1 |
Departure
| Time | 2026-04-25 19:37 |
|---|---|
| Airport | Tancredo Neves International Airport (SBCF) |
Arrival
| Time | 2026-04-25 21:36 |
|---|---|
| Airport | Zumbi dos Palmares International Airport (SBMO) |
| Time | Latitude | Longitude | Altitude | Speed | Heading |
|---|---|---|---|---|---|
| 2026-04-25 18:39 | -19.62962 | -43.96716 | 2705 ft | 0 kts | 49° |
| 2026-04-25 19:22 | -19.62966 | -43.96721 | 2704 ft | 2 kts | 49° |
| 2026-04-25 19:22 | -19.62976 | -43.96733 | 2702 ft | 2 kts | 49° |
| 2026-04-25 19:22 | -19.62991 | -43.96760 | 2700 ft | 2 kts | 94° |
| 2026-04-25 19:23 | -19.62986 | -43.96775 | 2700 ft | 2 kts | 127° |
| 2026-04-25 19:23 | -19.62975 | -43.96785 | 2700 ft | 0 kts | 139° |
| 2026-04-25 19:25 | -19.62982 | -43.96778 | 2699 ft | 1 kts | 137° |
| 2026-04-25 19:25 | -19.63003 | -43.96759 | 2699 ft | 9 kts | 137° |
| 2026-04-25 19:26 | -19.63053 | -43.96711 | 2699 ft | 10 kts | 139° |
| 2026-04-25 19:26 | -19.63108 | -43.96661 | 2699 ft | 10 kts | 140° |
| 2026-04-25 19:26 | -19.63162 | -43.96614 | 2700 ft | 9 kts | 149° |
| 2026-04-25 19:26 | -19.63221 | -43.96648 | 2697 ft | 13 kts | 230° |
| 2026-04-25 19:27 | -19.63301 | -43.96703 | 2691 ft | 15 kts | 167° |
| 2026-04-25 19:27 | -19.63333 | -43.96683 | 2690 ft | 16 kts | 141° |
| 2026-04-25 19:27 | -19.63486 | -43.96541 | 2694 ft | 17 kts | 140° |
| 2026-04-25 19:27 | -19.63579 | -43.96457 | 2697 ft | 17 kts | 140° |
| 2026-04-25 19:28 | -19.63677 | -43.96366 | 2701 ft | 21 kts | 139° |
| 2026-04-25 19:28 | -19.63817 | -43.96241 | 2702 ft | 29 kts | 137° |
| 2026-04-25 19:28 | -19.63985 | -43.96081 | 2705 ft | 33 kts | 139° |
| 2026-04-25 19:28 | -19.64148 | -43.95929 | 2709 ft | 33 kts | 138° |
| 2026-04-25 19:29 | -19.64327 | -43.95764 | 2712 ft | 34 kts | 138° |
| 2026-04-25 19:29 | -19.64510 | -43.95595 | 2716 ft | 33 kts | 139° |
| 2026-04-25 19:29 | -19.64631 | -43.95483 | 2720 ft | 11 kts | 141° |
| 2026-04-25 19:29 | -19.64693 | -43.95500 | 2720 ft | 4 kts | 226° |
| 2026-04-25 19:30 | -19.64704 | -43.95512 | 2719 ft | 4 kts | 226° |
| 2026-04-25 19:30 | -19.64734 | -43.95546 | 2719 ft | 7 kts | 226° |
| 2026-04-25 19:30 | -19.64755 | -43.95571 | 2719 ft | 3 kts | 247° |
| 2026-04-25 19:30 | -19.64741 | -43.95609 | 2718 ft | 6 kts | 314° |
| 2026-04-25 19:31 | -19.64738 | -43.95612 | 2718 ft | 0 kts | 314° |
| 2026-04-25 19:33 | -19.64696 | -43.95653 | 2717 ft | 30 kts | 319° |
| 2026-04-25 19:33 | -19.64491 | -43.95842 | 2709 ft | 27 kts | 317° |
| 2026-04-25 19:33 | -19.64389 | -43.95919 | 2707 ft | 13 kts | 359° |
| 2026-04-25 19:33 | -19.64319 | -43.95868 | 2709 ft | 8 kts | 49° |
| 2026-04-25 19:34 | -19.64301 | -43.95846 | 2710 ft | 4 kts | 52° |
| 2026-04-25 19:34 | -19.64298 | -43.95796 | 2711 ft | 9 kts | 121° |
| 2026-04-25 19:34 | -19.64345 | -43.95744 | 2713 ft | 10 kts | 137° |
| 2026-04-25 19:34 | -19.64405 | -43.95690 | 2714 ft | 12 kts | 138° |
| 2026-04-25 19:35 | -19.64475 | -43.95626 | 2715 ft | 13 kts | 139° |
| 2026-04-25 19:35 | -19.64546 | -43.95561 | 2717 ft | 13 kts | 139° |
| 2026-04-25 19:35 | -19.64616 | -43.95498 | 2719 ft | 12 kts | 138° |
| 2026-04-25 19:35 | -19.64689 | -43.95493 | 2720 ft | 12 kts | 219° |
| 2026-04-25 19:36 | -19.64750 | -43.95567 | 2719 ft | 11 kts | 257° |
| 2026-04-25 19:36 | -19.64685 | -43.95665 | 2717 ft | 28 kts | 317° |
| 2026-04-25 19:36 | -19.64360 | -43.95968 | 2706 ft | 96 kts | 320° |
| 2026-04-25 19:36 | -19.63693 | -43.96580 | 2690 ft | 156 kts | 320° |
| 2026-04-25 19:37 | -19.62769 | -43.97445 | 2890 ft | 185 kts | 315° |
| 2026-04-25 19:37 | -19.61820 | -43.98366 | 3600 ft | 186 kts | 316° |
| 2026-04-25 19:37 | -19.60890 | -43.99324 | 4248 ft | 196 kts | 311° |
| 2026-04-25 19:37 | -19.59942 | -44.00434 | 4772 ft | 210 kts | 310° |
| 2026-04-25 19:38 | -19.58926 | -44.01602 | 5305 ft | 226 kts | 313° |
| 2026-04-25 19:38 | -19.57764 | -44.02852 | 5860 ft | 243 kts | 315° |
| 2026-04-25 19:38 | -19.56546 | -44.04133 | 6510 ft | 255 kts | 314° |
| 2026-04-25 19:38 | -19.55277 | -44.05457 | 7356 ft | 257 kts | 318° |
| 2026-04-25 19:39 | -19.53711 | -44.06404 | 7805 ft | 269 kts | 345° |
| 2026-04-25 19:39 | -19.51845 | -44.06448 | 7983 ft | 270 kts | 13° |
| 2026-04-25 19:39 | -19.50135 | -44.05622 | 8007 ft | 269 kts | 36° |
| 2026-04-25 19:39 | -19.48783 | -44.04265 | 8011 ft | 267 kts | 52° |
| 2026-04-25 19:40 | -19.47981 | -44.02502 | 7996 ft | 267 kts | 80° |
| 2026-04-25 19:40 | -19.48069 | -44.00563 | 8013 ft | 270 kts | 106° |
| 2026-04-25 19:40 | -19.48861 | -43.98751 | 8008 ft | 271 kts | 123° |
| 2026-04-25 19:40 | -19.49936 | -43.97102 | 7997 ft | 270 kts | 122° |
| 2026-04-25 19:41 | -19.50588 | -43.95249 | 7998 ft | 269 kts | 94° |
| 2026-04-25 19:41 | -19.50416 | -43.93303 | 8019 ft | 269 kts | 74° |
| 2026-04-25 19:41 | -19.49802 | -43.91420 | 8004 ft | 272 kts | 68° |
| 2026-04-25 19:41 | -19.49563 | -43.90802 | 8012 ft | 278 kts | 67° |
| 2026-04-25 19:42 | -19.48195 | -43.87509 | 8042 ft | 304 kts | 64° |
| 2026-04-25 19:42 | -19.47273 | -43.85543 | 8933 ft | 298 kts | 62° |
| 2026-04-25 19:42 | -19.46348 | -43.83630 | 10024 ft | 290 kts | 63° |
| 2026-04-25 19:42 | -19.45448 | -43.81696 | 10725 ft | 299 kts | 64° |
| 2026-04-25 19:43 | -19.44550 | -43.79698 | 11415 ft | 307 kts | 64° |
| 2026-04-25 19:43 | -19.43627 | -43.77618 | 11998 ft | 320 kts | 65° |
| 2026-04-25 19:43 | -19.42655 | -43.75431 | 12523 ft | 334 kts | 65° |
| 2026-04-25 19:43 | -19.41647 | -43.73174 | 13003 ft | 348 kts | 65° |
| 2026-04-25 19:44 | -19.40586 | -43.70810 | 13643 ft | 358 kts | 65° |
| 2026-04-25 19:44 | -19.39541 | -43.68418 | 14426 ft | 362 kts | 67° |
| 2026-04-25 19:44 | -19.38587 | -43.65935 | 15203 ft | 366 kts | 69° |
| 2026-04-25 19:44 | -19.37698 | -43.63410 | 15983 ft | 370 kts | 70° |
| 2026-04-25 19:45 | -19.36816 | -43.60852 | 16705 ft | 374 kts | 70° |
| 2026-04-25 19:45 | -19.35914 | -43.58255 | 17459 ft | 377 kts | 70° |
| 2026-04-25 19:45 | -19.34986 | -43.55623 | 18144 ft | 382 kts | 69° |
| 2026-04-25 19:45 | -19.34046 | -43.52988 | 18740 ft | 389 kts | 69° |
| 2026-04-25 19:46 | -19.33078 | -43.50302 | 19423 ft | 392 kts | 69° |
| 2026-04-25 19:46 | -19.32016 | -43.47610 | 20030 ft | 398 kts | 65° |
| 2026-04-25 19:46 | -19.30651 | -43.45065 | 20638 ft | 402 kts | 55° |
| 2026-04-25 19:46 | -19.28845 | -43.42780 | 21205 ft | 407 kts | 44° |
| 2026-04-25 19:47 | -19.26706 | -43.40803 | 21810 ft | 410 kts | 38° |
| 2026-04-25 19:47 | -19.24396 | -43.38976 | 22336 ft | 416 kts | 35° |
| 2026-04-25 19:47 | -19.22042 | -43.37215 | 22938 ft | 419 kts | 35° |
| 2026-04-25 19:47 | -19.19653 | -43.35435 | 23550 ft | 422 kts | 35° |
| 2026-04-25 19:48 | -19.17222 | -43.33599 | 24119 ft | 426 kts | 35° |
| 2026-04-25 19:48 | -19.14826 | -43.31762 | 24672 ft | 429 kts | 35° |
| 2026-04-25 19:48 | -19.12408 | -43.29884 | 25226 ft | 433 kts | 36° |
| 2026-04-25 19:48 | -19.09969 | -43.27975 | 25915 ft | 432 kts | 36° |
| 2026-04-25 19:49 | -19.07606 | -43.26114 | 26736 ft | 427 kts | 36° |
| 2026-04-25 19:49 | -19.06810 | -43.25485 | 27018 ft | 425 kts | 36° |
| 2026-04-25 19:49 | -19.02872 | -43.22370 | 28127 ft | 423 kts | 36° |
| 2026-04-25 19:49 | -19.00540 | -43.20524 | 28680 ft | 424 kts | 36° |
| 2026-04-25 19:50 | -18.95806 | -43.16776 | 29751 ft | 425 kts | 36° |
| 2026-04-25 19:50 | -18.93450 | -43.14913 | 30379 ft | 423 kts | 36° |
| 2026-04-25 19:50 | -18.91102 | -43.13056 | 31036 ft | 419 kts | 36° |
| 2026-04-25 19:51 | -18.88779 | -43.11218 | 31618 ft | 416 kts | 36° |
| 2026-04-25 19:51 | -18.86414 | -43.09345 | 32085 ft | 417 kts | 36° |
| 2026-04-25 19:51 | -18.84103 | -43.07516 | 32536 ft | 417 kts | 36° |
| 2026-04-25 19:51 | -18.81772 | -43.05674 | 33115 ft | 414 kts | 36° |
| 2026-04-25 19:52 | -18.79473 | -43.03862 | 33656 ft | 413 kts | 36° |
| 2026-04-25 19:52 | -18.77176 | -43.02056 | 34198 ft | 411 kts | 36° |
| 2026-04-25 19:52 | -18.74878 | -43.00246 | 34815 ft | 406 kts | 36° |
| 2026-04-25 19:52 | -18.72639 | -42.98477 | 35354 ft | 403 kts | 36° |
| 2026-04-25 19:53 | -18.70395 | -42.96702 | 35840 ft | 401 kts | 36° |
| 2026-04-25 19:53 | -18.68153 | -42.94929 | 36296 ft | 398 kts | 36° |
| 2026-04-25 19:53 | -18.65935 | -42.93178 | 36766 ft | 395 kts | 36° |
| 2026-04-25 19:53 | -18.63752 | -42.91454 | 37092 ft | 396 kts | 36° |
| 2026-04-25 19:54 | -18.61496 | -42.89676 | 37095 ft | 402 kts | 36° |
| 2026-04-25 19:54 | -18.56931 | -42.86086 | 37086 ft | 415 kts | 36° |
| 2026-04-25 19:55 | -18.52180 | -42.82351 | 37080 ft | 428 kts | 36° |
| 2026-04-25 19:55 | -18.47328 | -42.78529 | 37066 ft | 441 kts | 36° |
| 2026-04-25 19:56 | -18.42314 | -42.74596 | 37059 ft | 454 kts | 36° |
| 2026-04-25 19:56 | -18.37172 | -42.70581 | 37058 ft | 466 kts | 36° |
| 2026-04-25 19:57 | -18.31940 | -42.66477 | 37063 ft | 464 kts | 36° |
| 2026-04-25 19:57 | -18.26750 | -42.62403 | 37060 ft | 462 kts | 36° |
| 2026-04-25 19:58 | -18.21597 | -42.58361 | 37064 ft | 462 kts | 36° |
| 2026-04-25 19:58 | -18.16388 | -42.54281 | 37060 ft | 463 kts | 36° |
| 2026-04-25 19:59 | -18.11234 | -42.50250 | 37058 ft | 462 kts | 36° |
| 2026-04-25 19:59 | -18.06052 | -42.46200 | 37048 ft | 463 kts | 36° |
| 2026-04-25 20:00 | -18.00868 | -42.42154 | 37052 ft | 463 kts | 36° |
| 2026-04-25 20:00 | -17.95668 | -42.38099 | 37044 ft | 463 kts | 36° |
| 2026-04-25 20:01 | -17.87898 | -42.32044 | 37060 ft | 462 kts | 36° |
| 2026-04-25 20:01 | -17.82674 | -42.27976 | 37065 ft | 463 kts | 36° |
| 2026-04-25 20:02 | -17.77496 | -42.23950 | 37073 ft | 463 kts | 36° |
| 2026-04-25 20:02 | -17.72281 | -42.19897 | 37078 ft | 463 kts | 36° |
| 2026-04-25 20:03 | -17.67082 | -42.15855 | 37077 ft | 463 kts | 36° |
| 2026-04-25 20:03 | -17.61875 | -42.11812 | 37070 ft | 462 kts | 36° |
| 2026-04-25 20:04 | -17.56668 | -42.07774 | 37073 ft | 463 kts | 36° |
| 2026-04-25 20:04 | -17.51457 | -42.03737 | 37068 ft | 463 kts | 36° |
| 2026-04-25 20:05 | -17.46267 | -41.99715 | 37068 ft | 463 kts | 36° |
| 2026-04-25 20:05 | -17.41042 | -41.95664 | 37063 ft | 462 kts | 36° |
| 2026-04-25 20:06 | -17.35849 | -41.91640 | 37058 ft | 463 kts | 36° |
| 2026-04-25 20:06 | -17.30649 | -41.87616 | 37058 ft | 462 kts | 36° |
| 2026-04-25 20:07 | -17.25472 | -41.83613 | 37062 ft | 462 kts | 36° |
| 2026-04-25 20:07 | -17.20269 | -41.79592 | 37066 ft | 461 kts | 36° |
| 2026-04-25 20:08 | -17.15126 | -41.75615 | 37069 ft | 461 kts | 36° |
| 2026-04-25 20:08 | -17.09939 | -41.71611 | 37068 ft | 461 kts | 36° |
| 2026-04-25 20:09 | -17.04732 | -41.67592 | 37060 ft | 460 kts | 36° |
| 2026-04-25 20:09 | -16.99574 | -41.63619 | 37054 ft | 461 kts | 36° |
| 2026-04-25 20:10 | -16.94359 | -41.59608 | 37045 ft | 461 kts | 36° |
| 2026-04-25 20:10 | -16.89189 | -41.55627 | 37035 ft | 461 kts | 36° |
| 2026-04-25 20:11 | -16.83982 | -41.51623 | 37029 ft | 461 kts | 36° |
| 2026-04-25 20:11 | -16.78801 | -41.47641 | 37023 ft | 461 kts | 36° |
| 2026-04-25 20:12 | -16.73610 | -41.43653 | 37023 ft | 460 kts | 36° |
| 2026-04-25 20:12 | -16.70161 | -41.41007 | 37022 ft | 461 kts | 36° |
| 2026-04-25 20:13 | -16.63283 | -41.35697 | 37015 ft | 461 kts | 37° |
| 2026-04-25 20:13 | -16.58112 | -41.31678 | 37007 ft | 461 kts | 37° |
| 2026-04-25 20:14 | -16.52939 | -41.27661 | 36997 ft | 461 kts | 37° |
| 2026-04-25 20:14 | -16.47797 | -41.23675 | 36989 ft | 461 kts | 37° |
| 2026-04-25 20:15 | -16.42630 | -41.19673 | 37004 ft | 460 kts | 37° |
| 2026-04-25 20:15 | -16.37459 | -41.15671 | 37016 ft | 461 kts | 37° |
| 2026-04-25 20:16 | -16.32279 | -41.11664 | 37018 ft | 460 kts | 37° |
| 2026-04-25 20:16 | -16.27109 | -41.07671 | 37015 ft | 460 kts | 37° |
| 2026-04-25 20:17 | -16.21951 | -41.03689 | 37011 ft | 459 kts | 37° |
| 2026-04-25 20:17 | -16.16826 | -40.99736 | 37014 ft | 459 kts | 37° |
| 2026-04-25 20:18 | -16.11665 | -40.95758 | 37024 ft | 458 kts | 37° |
| 2026-04-25 20:18 | -16.06507 | -40.91784 | 37028 ft | 459 kts | 37° |
| 2026-04-25 20:19 | -16.01326 | -40.87790 | 37032 ft | 462 kts | 37° |
| 2026-04-25 20:19 | -15.96137 | -40.83796 | 37039 ft | 465 kts | 37° |
| 2026-04-25 20:20 | -15.90921 | -40.79788 | 37041 ft | 464 kts | 37° |
| 2026-04-25 20:20 | -15.85735 | -40.75807 | 37043 ft | 464 kts | 37° |
| 2026-04-25 20:21 | -15.80497 | -40.71783 | 37051 ft | 464 kts | 37° |
| 2026-04-25 20:21 | -15.75284 | -40.67782 | 37054 ft | 464 kts | 37° |
| 2026-04-25 20:22 | -15.71832 | -40.65132 | 37051 ft | 464 kts | 37° |
| 2026-04-25 20:22 | -15.64897 | -40.59818 | 37048 ft | 463 kts | 37° |
| 2026-04-25 20:23 | -15.59716 | -40.55851 | 37042 ft | 462 kts | 37° |
| 2026-04-25 20:23 | -15.54519 | -40.51875 | 37039 ft | 462 kts | 37° |
| 2026-04-25 20:24 | -15.49370 | -40.47936 | 37032 ft | 461 kts | 37° |
| 2026-04-25 20:24 | -15.44171 | -40.43962 | 37023 ft | 461 kts | 37° |
| 2026-04-25 20:25 | -15.39042 | -40.40046 | 37015 ft | 460 kts | 37° |
| 2026-04-25 20:25 | -15.33854 | -40.36087 | 37007 ft | 459 kts | 37° |
| 2026-04-25 20:26 | -15.28687 | -40.32141 | 37003 ft | 459 kts | 37° |
| 2026-04-25 20:26 | -15.23533 | -40.28211 | 36994 ft | 458 kts | 37° |
| 2026-04-25 20:27 | -15.18391 | -40.24295 | 37006 ft | 458 kts | 37° |
| 2026-04-25 20:27 | -15.13271 | -40.20396 | 37010 ft | 457 kts | 37° |
| 2026-04-25 20:28 | -15.08141 | -40.16492 | 37016 ft | 457 kts | 37° |
| 2026-04-25 20:28 | -15.03028 | -40.12605 | 37016 ft | 457 kts | 37° |
| 2026-04-25 20:29 | -14.97866 | -40.08684 | 37014 ft | 456 kts | 37° |
| 2026-04-25 20:29 | -14.92752 | -40.04800 | 37002 ft | 457 kts | 37° |
| 2026-04-25 20:30 | -14.87614 | -40.00899 | 36998 ft | 456 kts | 37° |
| 2026-04-25 20:30 | -14.82465 | -39.96993 | 36991 ft | 456 kts | 37° |
| 2026-04-25 20:31 | -14.77361 | -39.93124 | 36991 ft | 455 kts | 37° |
| 2026-04-25 20:31 | -14.72228 | -39.89232 | 36996 ft | 456 kts | 37° |
| 2026-04-25 20:32 | -14.67128 | -39.85370 | 36993 ft | 456 kts | 37° |
| 2026-04-25 20:32 | -14.61993 | -39.81483 | 36989 ft | 455 kts | 37° |
| 2026-04-25 20:33 | -14.56902 | -39.77633 | 36988 ft | 455 kts | 37° |
| 2026-04-25 20:33 | -14.53470 | -39.75040 | 36986 ft | 454 kts | 37° |
| 2026-04-25 20:34 | -14.46657 | -39.69893 | 36972 ft | 455 kts | 37° |
| 2026-04-25 20:34 | -14.41523 | -39.66014 | 36970 ft | 455 kts | 37° |
| 2026-04-25 20:35 | -14.36393 | -39.62139 | 36962 ft | 455 kts | 37° |
| 2026-04-25 20:35 | -14.31315 | -39.58312 | 36957 ft | 454 kts | 37° |
| 2026-04-25 20:36 | -14.26167 | -39.54443 | 36953 ft | 456 kts | 37° |
| 2026-04-25 20:36 | -14.21030 | -39.50598 | 36950 ft | 455 kts | 37° |
| 2026-04-25 20:37 | -14.15921 | -39.46773 | 36955 ft | 454 kts | 37° |
| 2026-04-25 20:37 | -14.10765 | -39.42918 | 36957 ft | 455 kts | 37° |
| 2026-04-25 20:38 | -14.05659 | -39.39097 | 36959 ft | 454 kts | 37° |
| 2026-04-25 20:38 | -14.00530 | -39.35260 | 36962 ft | 454 kts | 37° |
| 2026-04-25 20:39 | -13.95415 | -39.31437 | 36961 ft | 454 kts | 37° |
| 2026-04-25 20:39 | -13.91988 | -39.28880 | 36957 ft | 454 kts | 37° |
| 2026-04-25 20:40 | -13.85140 | -39.23769 | 36948 ft | 454 kts | 37° |
| 2026-04-25 20:40 | -13.80012 | -39.19944 | 36946 ft | 454 kts | 37° |
| 2026-04-25 20:41 | -13.74998 | -39.16205 | 36941 ft | 455 kts | 37° |
| 2026-04-25 20:41 | -13.69887 | -39.12394 | 36936 ft | 455 kts | 37° |
| 2026-04-25 20:42 | -13.64753 | -39.08567 | 36933 ft | 455 kts | 37° |
| 2026-04-25 20:42 | -13.59596 | -39.04729 | 36931 ft | 454 kts | 37° |
| 2026-04-25 20:43 | -13.54456 | -39.00910 | 36927 ft | 455 kts | 37° |
| 2026-04-25 20:43 | -13.49312 | -38.97103 | 36924 ft | 456 kts | 37° |
| 2026-04-25 20:44 | -13.44121 | -38.93267 | 36926 ft | 455 kts | 37° |
| 2026-04-25 20:44 | -13.38967 | -38.89459 | 36924 ft | 455 kts | 37° |
| 2026-04-25 20:45 | -13.33822 | -38.85660 | 36926 ft | 455 kts | 37° |
| 2026-04-25 20:45 | -13.28682 | -38.81862 | 36925 ft | 455 kts | 37° |
| 2026-04-25 20:46 | -13.23552 | -38.78072 | 36926 ft | 455 kts | 37° |
| 2026-04-25 20:46 | -13.18393 | -38.74266 | 36925 ft | 455 kts | 37° |
| 2026-04-25 20:47 | -13.13249 | -38.70473 | 36925 ft | 455 kts | 37° |
| 2026-04-25 20:47 | -13.08092 | -38.66672 | 36925 ft | 455 kts | 37° |
| 2026-04-25 20:48 | -13.02943 | -38.62880 | 36926 ft | 455 kts | 37° |
| 2026-04-25 20:48 | -12.97784 | -38.59079 | 36928 ft | 455 kts | 37° |
| 2026-04-25 20:49 | -12.92632 | -38.55288 | 36931 ft | 455 kts | 37° |
| 2026-04-25 20:49 | -12.87471 | -38.51490 | 36933 ft | 456 kts | 37° |
| 2026-04-25 20:50 | -12.82292 | -38.47681 | 36930 ft | 456 kts | 37° |
| 2026-04-25 20:50 | -12.77152 | -38.43903 | 36930 ft | 455 kts | 37° |
| 2026-04-25 20:51 | -12.71966 | -38.40096 | 36928 ft | 456 kts | 37° |
| 2026-04-25 20:51 | -12.66808 | -38.36312 | 36929 ft | 456 kts | 37° |
| 2026-04-25 20:52 | -12.62474 | -38.33132 | 36927 ft | 456 kts | 36° |
| 2026-04-25 20:52 | -12.56438 | -38.28702 | 36923 ft | 457 kts | 36° |
| 2026-04-25 20:53 | -12.51278 | -38.24918 | 36922 ft | 457 kts | 36° |
| 2026-04-25 20:53 | -12.46068 | -38.21102 | 36924 ft | 457 kts | 36° |
| 2026-04-25 20:54 | -12.40892 | -38.17314 | 36922 ft | 457 kts | 36° |
| 2026-04-25 20:54 | -12.35685 | -38.13506 | 36923 ft | 457 kts | 36° |
| 2026-04-25 20:55 | -12.30495 | -38.09714 | 36924 ft | 458 kts | 36° |
| 2026-04-25 20:55 | -12.25306 | -38.05917 | 36923 ft | 458 kts | 36° |
| 2026-04-25 20:56 | -12.20106 | -38.02120 | 36920 ft | 458 kts | 37° |
| 2026-04-25 20:56 | -12.14899 | -37.98320 | 36922 ft | 458 kts | 36° |
| 2026-04-25 20:57 | -12.09690 | -37.94522 | 36920 ft | 458 kts | 36° |
| 2026-04-25 20:57 | -12.04491 | -37.90734 | 36918 ft | 458 kts | 37° |
| 2026-04-25 20:58 | -11.99315 | -37.86962 | 36918 ft | 458 kts | 37° |
| 2026-04-25 20:58 | -11.94096 | -37.83159 | 36915 ft | 459 kts | 37° |
| 2026-04-25 20:59 | -11.88867 | -37.79354 | 36912 ft | 458 kts | 37° |
| 2026-04-25 20:59 | -11.83658 | -37.75569 | 36909 ft | 458 kts | 36° |
| 2026-04-25 21:00 | -11.80205 | -37.73065 | 36908 ft | 458 kts | 36° |
| 2026-04-25 21:01 | -11.70650 | -37.66147 | 36909 ft | 457 kts | 36° |
| 2026-04-25 21:01 | -11.65636 | -37.62521 | 36910 ft | 457 kts | 36° |
| 2026-04-25 21:02 | -11.60433 | -37.58761 | 36909 ft | 457 kts | 36° |
| 2026-04-25 21:02 | -11.55223 | -37.54992 | 36909 ft | 456 kts | 36° |
| 2026-04-25 21:03 | -11.50024 | -37.51234 | 36908 ft | 456 kts | 36° |
| 2026-04-25 21:03 | -11.44844 | -37.47490 | 36908 ft | 456 kts | 36° |
| 2026-04-25 21:04 | -11.39652 | -37.43737 | 36907 ft | 455 kts | 36° |
| 2026-04-25 21:04 | -11.34465 | -37.39991 | 36908 ft | 456 kts | 36° |
| 2026-04-25 21:05 | -11.29266 | -37.36237 | 36907 ft | 457 kts | 36° |
| 2026-04-25 21:05 | -11.24064 | -37.32486 | 36907 ft | 455 kts | 35° |
| 2026-04-25 21:06 | -11.18897 | -37.28762 | 36908 ft | 456 kts | 35° |
| 2026-04-25 21:06 | -11.13688 | -37.25010 | 36907 ft | 457 kts | 35° |
| 2026-04-25 21:07 | -11.08477 | -37.21257 | 36911 ft | 456 kts | 35° |
| 2026-04-25 21:07 | -11.03281 | -37.17515 | 36913 ft | 457 kts | 35° |
| 2026-04-25 21:08 | -10.98076 | -37.13773 | 36912 ft | 456 kts | 34° |
| 2026-04-25 21:08 | -10.92878 | -37.10048 | 36916 ft | 455 kts | 35° |
| 2026-04-25 21:09 | -10.85070 | -37.04456 | 36915 ft | 454 kts | 34° |
| 2026-04-25 21:09 | -10.79873 | -37.00735 | 36914 ft | 455 kts | 34° |
| 2026-04-25 21:10 | -10.77312 | -36.98903 | 36808 ft | 450 kts | 35° |
| 2026-04-25 21:10 | -10.74763 | -36.97079 | 36382 ft | 444 kts | 35° |
| 2026-04-25 21:10 | -10.72226 | -36.95262 | 35823 ft | 439 kts | 35° |
| 2026-04-25 21:10 | -10.69734 | -36.93480 | 35140 ft | 437 kts | 35° |
| 2026-04-25 21:11 | -10.67234 | -36.91694 | 34387 ft | 437 kts | 36° |
| 2026-04-25 21:11 | -10.64751 | -36.89920 | 33599 ft | 437 kts | 36° |
| 2026-04-25 21:11 | -10.62277 | -36.88152 | 32788 ft | 438 kts | 36° |
| 2026-04-25 21:11 | -10.59754 | -36.86347 | 32015 ft | 440 kts | 36° |
| 2026-04-25 21:12 | -10.57244 | -36.84550 | 31192 ft | 442 kts | 36° |
| 2026-04-25 21:12 | -10.54731 | -36.82753 | 30327 ft | 446 kts | 36° |
| 2026-04-25 21:12 | -10.52173 | -36.80928 | 29413 ft | 450 kts | 37° |
| 2026-04-25 21:12 | -10.51347 | -36.80338 | 29106 ft | 451 kts | 37° |
| 2026-04-25 21:13 | -10.47001 | -36.77237 | 27488 ft | 458 kts | 37° |
| 2026-04-25 21:13 | -10.44422 | -36.75396 | 26808 ft | 454 kts | 37° |
| 2026-04-25 21:13 | -10.41840 | -36.73552 | 26145 ft | 450 kts | 37° |
| 2026-04-25 21:13 | -10.39421 | -36.71825 | 25485 ft | 447 kts | 37° |
| 2026-04-25 21:14 | -10.36874 | -36.70008 | 24769 ft | 444 kts | 37° |
| 2026-04-25 21:14 | -10.34358 | -36.68214 | 24062 ft | 441 kts | 37° |
| 2026-04-25 21:14 | -10.31838 | -36.66416 | 23340 ft | 439 kts | 37° |
| 2026-04-25 21:14 | -10.29331 | -36.64629 | 22626 ft | 436 kts | 37° |
| 2026-04-25 21:15 | -10.26855 | -36.62865 | 21933 ft | 433 kts | 37° |
| 2026-04-25 21:15 | -10.24387 | -36.61106 | 21241 ft | 431 kts | 37° |
| 2026-04-25 21:15 | -10.21945 | -36.59364 | 20532 ft | 430 kts | 37° |
| 2026-04-25 21:15 | -10.19501 | -36.57620 | 19815 ft | 428 kts | 36° |
| 2026-04-25 21:16 | -10.17073 | -36.55889 | 19079 ft | 427 kts | 36° |
| 2026-04-25 21:16 | -10.14643 | -36.54134 | 18348 ft | 425 kts | 37° |
| 2026-04-25 21:16 | -10.12317 | -36.52290 | 17624 ft | 423 kts | 40° |
| 2026-04-25 21:16 | -10.10072 | -36.50370 | 16889 ft | 421 kts | 41° |
| 2026-04-25 21:17 | -10.07868 | -36.48425 | 16152 ft | 419 kts | 42° |
| 2026-04-25 21:17 | -10.05682 | -36.46482 | 15418 ft | 416 kts | 42° |
| 2026-04-25 21:17 | -10.03641 | -36.44678 | 14744 ft | 413 kts | 42° |
| 2026-04-25 21:17 | -10.01471 | -36.42775 | 14017 ft | 410 kts | 42° |
| 2026-04-25 21:18 | -9.99348 | -36.40933 | 13306 ft | 397 kts | 42° |
| 2026-04-25 21:18 | -9.97285 | -36.39154 | 12630 ft | 385 kts | 41° |
| 2026-04-25 21:18 | -9.95270 | -36.37422 | 11954 ft | 373 kts | 42° |
| 2026-04-25 21:18 | -9.93316 | -36.35741 | 11301 ft | 362 kts | 42° |
| 2026-04-25 21:19 | -9.91399 | -36.34092 | 10866 ft | 355 kts | 41° |
| 2026-04-25 21:19 | -9.89550 | -36.32499 | 10606 ft | 341 kts | 42° |
| 2026-04-25 21:19 | -9.87775 | -36.30973 | 10252 ft | 326 kts | 42° |
| 2026-04-25 21:19 | -9.86074 | -36.29510 | 9919 ft | 311 kts | 42° |
| 2026-04-25 21:20 | -9.84453 | -36.28115 | 9641 ft | 296 kts | 42° |
| 2026-04-25 21:20 | -9.83950 | -36.27683 | 9550 ft | 291 kts | 42° |
| 2026-04-25 21:20 | -9.81447 | -36.25531 | 9116 ft | 270 kts | 42° |
| 2026-04-25 21:20 | -9.80051 | -36.24331 | 8897 ft | 258 kts | 43° |
| 2026-04-25 21:21 | -9.78685 | -36.23154 | 8490 ft | 255 kts | 43° |
| 2026-04-25 21:21 | -9.77344 | -36.21998 | 8046 ft | 254 kts | 43° |
| 2026-04-25 21:21 | -9.75990 | -36.20833 | 7610 ft | 252 kts | 43° |
| 2026-04-25 21:21 | -9.74664 | -36.19694 | 7364 ft | 243 kts | 43° |
| 2026-04-25 21:22 | -9.73392 | -36.18605 | 7157 ft | 233 kts | 43° |
| 2026-04-25 21:22 | -9.72151 | -36.17541 | 6804 ft | 231 kts | 43° |
| 2026-04-25 21:22 | -9.70941 | -36.16502 | 6432 ft | 230 kts | 44° |
| 2026-04-25 21:22 | -9.69719 | -36.15451 | 6101 ft | 228 kts | 44° |
| 2026-04-25 21:23 | -9.68495 | -36.14403 | 5850 ft | 226 kts | 44° |
| 2026-04-25 21:23 | -9.67297 | -36.13379 | 5572 ft | 227 kts | 44° |
| 2026-04-25 21:23 | -9.66090 | -36.12341 | 5326 ft | 225 kts | 44° |
| 2026-04-25 21:23 | -9.64889 | -36.11311 | 5067 ft | 224 kts | 44° |
| 2026-04-25 21:24 | -9.63700 | -36.10284 | 4831 ft | 222 kts | 44° |
| 2026-04-25 21:24 | -9.62526 | -36.09275 | 4561 ft | 222 kts | 44° |
| 2026-04-25 21:24 | -9.61342 | -36.08259 | 4327 ft | 220 kts | 44° |
| 2026-04-25 21:24 | -9.60176 | -36.07262 | 4058 ft | 220 kts | 44° |
| 2026-04-25 21:25 | -9.59005 | -36.06266 | 3931 ft | 216 kts | 40° |
| 2026-04-25 21:25 | -9.57627 | -36.05617 | 3923 ft | 224 kts | 11° |
| 2026-04-25 21:25 | -9.56043 | -36.05804 | 3937 ft | 234 kts | 339° |
| 2026-04-25 21:25 | -9.54529 | -36.06438 | 3915 ft | 235 kts | 349° |
| 2026-04-25 21:26 | -9.52951 | -36.06740 | 3926 ft | 231 kts | 345° |
| 2026-04-25 21:26 | -9.51549 | -36.07550 | 3928 ft | 235 kts | 313° |
| 2026-04-25 21:26 | -9.50762 | -36.08991 | 3934 ft | 235 kts | 279° |
| 2026-04-25 21:26 | -9.50850 | -36.10610 | 3937 ft | 230 kts | 245° |
| 2026-04-25 21:27 | -9.51766 | -36.11888 | 3932 ft | 220 kts | 211° |
| 2026-04-25 21:27 | -9.53155 | -36.12405 | 3937 ft | 213 kts | 178° |
| 2026-04-25 21:27 | -9.54575 | -36.12029 | 3932 ft | 208 kts | 143° |
| 2026-04-25 21:27 | -9.55470 | -36.10924 | 3925 ft | 207 kts | 110° |
| 2026-04-25 21:28 | -9.55556 | -36.09474 | 3920 ft | 206 kts | 79° |
| 2026-04-25 21:28 | -9.55090 | -36.08128 | 3673 ft | 206 kts | 66° |
| 2026-04-25 21:28 | -9.54276 | -36.06957 | 3507 ft | 197 kts | 53° |
| 2026-04-25 21:28 | -9.53430 | -36.05997 | 3350 ft | 186 kts | 53° |
| 2026-04-25 21:29 | -9.52609 | -36.05026 | 3133 ft | 178 kts | 54° |
| 2026-04-25 21:29 | -9.51890 | -36.04132 | 2913 ft | 171 kts | 55° |
| 2026-04-25 21:29 | -9.51146 | -36.03205 | 2617 ft | 169 kts | 56° |
| 2026-04-25 21:29 | -9.50403 | -36.02281 | 2276 ft | 169 kts | 55° |
| 2026-04-25 21:30 | -9.49666 | -36.01366 | 2041 ft | 164 kts | 56° |
| 2026-04-25 21:30 | -9.48952 | -36.00480 | 2060 ft | 163 kts | 56° |
| 2026-04-25 21:30 | -9.48225 | -35.99567 | 2057 ft | 169 kts | 55° |
| 2026-04-25 21:30 | -9.47761 | -35.98930 | 2053 ft | 167 kts | 64° |
| 2026-04-25 21:31 | -9.47565 | -35.97471 | 2010 ft | 157 kts | 105° |
| 2026-04-25 21:31 | -9.47837 | -35.96383 | 1959 ft | 160 kts | 104° |
| 2026-04-25 21:31 | -9.48051 | -35.95290 | 1952 ft | 159 kts | 102° |
| 2026-04-25 21:31 | -9.48251 | -35.94192 | 1952 ft | 156 kts | 102° |
| 2026-04-25 21:32 | -9.48442 | -35.93167 | 1958 ft | 137 kts | 102° |
| 2026-04-25 21:32 | -9.48614 | -35.92257 | 1922 ft | 124 kts | 103° |
| 2026-04-25 21:32 | -9.48778 | -35.91411 | 1962 ft | 124 kts | 103° |
| 2026-04-25 21:32 | -9.48946 | -35.90553 | 1969 ft | 131 kts | 103° |
| 2026-04-25 21:33 | -9.49116 | -35.89663 | 1945 ft | 131 kts | 102° |
| 2026-04-25 21:33 | -9.49273 | -35.88768 | 1946 ft | 130 kts | 103° |
| 2026-04-25 21:33 | -9.49445 | -35.87852 | 1879 ft | 135 kts | 102° |
| 2026-04-25 21:33 | -9.49622 | -35.86916 | 1652 ft | 134 kts | 103° |
| 2026-04-25 21:34 | -9.49809 | -35.85981 | 1480 ft | 136 kts | 103° |
| 2026-04-25 21:34 | -9.49992 | -35.85042 | 1373 ft | 135 kts | 103° |
| 2026-04-25 21:34 | -9.50132 | -35.84118 | 1246 ft | 132 kts | 101° |
| 2026-04-25 21:34 | -9.50298 | -35.83208 | 1086 ft | 131 kts | 103° |
| 2026-04-25 21:35 | -9.50490 | -35.82295 | 873 ft | 130 kts | 103° |
| 2026-04-25 21:35 | -9.50658 | -35.81391 | 673 ft | 131 kts | 102° |
| 2026-04-25 21:35 | -9.50827 | -35.80487 | 470 ft | 131 kts | 103° |
| 2026-04-25 21:35 | -9.50998 | -35.79605 | 393 ft | 110 kts | 103° |
| 2026-04-25 21:36 | -9.51095 | -35.79105 | 388 ft | 39 kts | 102° |
| 2026-04-25 21:36 | -9.51155 | -35.78948 | 387 ft | 21 kts | 121° |
| 2026-04-25 21:36 | -9.51239 | -35.78840 | 386 ft | 16 kts | 130° |
| 2026-04-25 21:36 | -9.51293 | -35.78828 | 385 ft | 8 kts | 227° |
| 2026-04-25 21:37 | -9.51296 | -35.78888 | 386 ft | 9 kts | 280° |
| 2026-04-25 21:37 | -9.51292 | -35.78911 | 386 ft | 10 kts | 279° |
| 2026-04-25 21:37 | -9.51292 | -35.78986 | 387 ft | 5 kts | 244° |
| 2026-04-25 21:37 | -9.51316 | -35.79011 | 388 ft | 4 kts | 212° |
| 2026-04-25 21:38 | -9.51342 | -35.79030 | 388 ft | 5 kts | 227° |
| 2026-04-25 21:38 | -9.51354 | -35.79080 | 388 ft | 9 kts | 277° |
| 2026-04-25 21:38 | -9.51341 | -35.79154 | 389 ft | 11 kts | 281° |
| 2026-04-25 21:38 | -9.51330 | -35.79216 | 390 ft | 5 kts | 269° |
| 2026-04-25 21:39 | -9.51365 | -35.79242 | 390 ft | 6 kts | 195° |
| 2026-04-25 21:39 | -9.51384 | -35.79246 | 390 ft | 1 kts | 191° |
| 2026-04-25 21:39 | -9.51386 | -35.79246 | 390 ft | 0 kts | 191° |